Time;durP1;ratioP1;P1;durP2;ratioP2;P2;SDS_P1;SDS_P2;PMS_P1;PMS_P2;Temp;Humidity;BMP_temperature;BMP_pressure;BME280_temperature;BME280_humidity;BME280_pressure;Samples;Min_cycle;Max_cycle;Signal;HPM_P1;HPM_P2
2022/03/31 00:00:58;;;;;;;17.60;5.50;;;;;;;;;;4952471;29;20051;-65
2022/03/31 00:03:24;;;;;;;29.35;6.25;;;;;;;;;;4952400;29;20554;-65
2022/03/31 00:05:50;;;;;;;26.52;5.72;;;;;;;;;;4952500;29;20041;-64
2022/03/31 00:08:18;;;;;;;24.05;6.07;;;;;;;;;;4953089;28;20027;-65
2022/03/31 00:10:45;;;;;;;26.10;5.75;;;;;;;;;;4955606;29;20047;-64
2022/03/31 00:13:13;;;;;;;21.85;6.30;;;;;;;;;;4956207;29;20503;-65
2022/03/31 00:15:39;;;;;;;20.95;6.05;;;;;;;;;;4956251;29;20027;-64
2022/03/31 00:18:06;;;;;;;24.55;6.15;;;;;;;;;;4956168;29;20031;-64
2022/03/31 00:20:32;;;;;;;23.73;5.45;;;;;;;;;;4955514;29;20031;-64
2022/03/31 00:22:59;;;;;;;29.30;6.07;;;;;;;;;;4955992;29;20028;-64
2022/03/31 00:25:26;;;;;;;24.45;5.43;;;;;;;;;;4956282;29;20035;-64
2022/03/31 00:27:52;;;;;;;21.50;5.50;;;;;;;;;;4955577;29;20023;-64
2022/03/31 00:30:19;;;;;;;30.67;5.70;;;;;;;;;;4956090;29;20027;-65
2022/03/31 00:32:45;;;;;;;23.40;5.38;;;;;;;;;;4955738;29;20027;-65
2022/03/31 00:35:13;;;;;;;31.77;6.60;;;;;;;;;;4956120;29;20032;-64
2022/03/31 00:37:43;;;;;;;24.42;6.20;;;;;;;;;;4955878;29;20392;-64
2022/03/31 00:40:10;;;;;;;26.13;6.00;;;;;;;;;;4955486;29;20035;-64
2022/03/31 00:42:43;;;;;;;23.33;5.68;;;;;;;;;;4955800;29;20417;-65
2022/03/31 00:45:16;;;;;;;22.55;5.82;;;;;;;;;;4955701;29;20547;-65
2022/03/31 00:47:42;;;;;;;34.10;6.38;;;;;;;;;;4955454;29;20534;-63
2022/03/31 00:50:09;;;;;;;23.85;7.35;;;;;;;;;;4955423;29;20027;-63
2022/03/31 00:52:35;;;;;;;26.35;5.85;;;;;;;;;;4955484;29;20038;-63
2022/03/31 00:55:01;;;;;;;23.50;6.93;;;;;;;;;;4955426;29;20027;-63
2022/03/31 00:57:28;;;;;;;23.17;6.40;;;;;;;;;;4955652;29;20480;-63
2022/03/31 00:59:54;;;;;;;21.92;5.63;;;;;;;;;;4955425;29;20054;-63
2022/03/31 01:02:20;;;;;;;28.05;5.88;;;;;;;;;;4955450;29;20118;-63
2022/03/31 01:04:47;;;;;;;26.55;6.00;;;;;;;;;;4955202;29;20039;-64
2022/03/31 01:07:13;;;;;;;22.75;5.28;;;;;;;;;;4955594;29;20035;-65
2022/03/31 01:09:39;;;;;;;24.35;6.50;;;;;;;;;;4954778;29;20440;-63
2022/03/31 01:12:05;;;;;;;23.65;5.90;;;;;;;;;;4955280;29;20027;-64
2022/03/31 01:14:32;;;;;;;21.70;5.97;;;;;;;;;;4955262;29;20032;-64
2022/03/31 01:16:58;;;;;;;26.48;6.10;;;;;;;;;;4955020;29;20024;-63
2022/03/31 01:19:24;;;;;;;27.17;5.55;;;;;;;;;;4954498;28;20117;-65
2022/03/31 01:21:50;;;;;;;20.35;5.97;;;;;;;;;;4954087;29;20043;-65
2022/03/31 01:24:18;;;;;;;23.85;5.68;;;;;;;;;;4955167;29;20024;-64
2022/03/31 01:26:44;;;;;;;29.27;6.10;;;;;;;;;;4954994;29;20055;-64
2022/03/31 01:29:11;;;;;;;20.92;5.57;;;;;;;;;;4954620;29;20058;-62
2022/03/31 01:31:38;;;;;;;21.55;5.50;;;;;;;;;;4954299;29;20078;-63
2022/03/31 01:34:04;;;;;;;25.80;6.20;;;;;;;;;;4954596;29;20078;-63
2022/03/31 01:36:31;;;;;;;24.63;6.50;;;;;;;;;;4954640;29;20042;-64
2022/03/31 01:38:57;;;;;;;20.75;5.50;;;;;;;;;;4954321;29;20411;-64
2022/03/31 01:41:24;;;;;;;25.88;5.80;;;;;;;;;;4954305;29;20028;-65
2022/03/31 01:43:50;;;;;;;22.38;6.65;;;;;;;;;;4954514;29;20204;-66
2022/03/31 01:46:16;;;;;;;21.90;6.43;;;;;;;;;;4954398;29;20519;-65
2022/03/31 01:48:42;;;;;;;17.55;5.50;;;;;;;;;;4954496;29;20027;-65
2022/03/31 01:51:08;;;;;;;24.33;5.88;;;;;;;;;;4954302;29;20024;-65
2022/03/31 01:53:36;;;;;;;22.88;5.65;;;;;;;;;;4954299;29;20031;-65
2022/03/31 01:56:03;;;;;;;20.70;5.72;;;;;;;;;;4954419;29;20042;-64
2022/03/31 01:58:29;;;;;;;28.60;6.65;;;;;;;;;;4954308;29;20050;-65
2022/03/31 02:00:57;;;;;;;24.17;6.57;;;;;;;;;;4954688;29;20055;-64
2022/03/31 02:03:23;;;;;;;22.10;6.70;;;;;;;;;;4956140;29;20472;-64
2022/03/31 02:05:50;;;;;;;24.10;6.55;;;;;;;;;;4955456;29;20055;-64
2022/03/31 02:08:17;;;;;;;22.00;6.80;;;;;;;;;;4954122;29;20024;-66
2022/03/31 02:10:43;;;;;;;23.83;5.95;;;;;;;;;;4953444;29;20051;-65
2022/03/31 02:13:09;;;;;;;25.05;6.45;;;;;;;;;;4954333;29;20027;-63
2022/03/31 02:15:35;;;;;;;22.92;5.50;;;;;;;;;;4953745;29;20023;-65
2022/03/31 02:18:04;;;;;;;21.60;6.90;;;;;;;;;;4953731;29;20536;-63
2022/03/31 02:20:32;;;;;;;32.28;7.05;;;;;;;;;;4954042;29;20188;-65
2022/03/31 02:23:00;;;;;;;28.52;6.15;;;;;;;;;;4953928;29;20499;-64
2022/03/31 02:25:26;;;;;;;23.42;6.43;;;;;;;;;;4953906;29;20027;-63
2022/03/31 02:27:53;;;;;;;25.98;6.57;;;;;;;;;;4953843;29;20034;-64
2022/03/31 02:30:20;;;;;;;24.73;6.68;;;;;;;;;;4953415;29;20027;-64
2022/03/31 02:32:46;;;;;;;32.35;7.97;;;;;;;;;;4953619;28;20507;-64
2022/03/31 02:35:12;;;;;;;22.85;5.95;;;;;;;;;;4953844;29;20031;-64
2022/03/31 02:37:38;;;;;;;22.88;5.93;;;;;;;;;;4953748;29;20023;-64
2022/03/31 02:40:05;;;;;;;21.08;6.05;;;;;;;;;;4953433;29;20046;-64
2022/03/31 02:42:32;;;;;;;25.30;6.05;;;;;;;;;;4953354;29;20383;-64
2022/03/31 02:44:58;;;;;;;20.73;5.93;;;;;;;;;;4953415;29;20103;-64
2022/03/31 02:47:24;;;;;;;22.00;6.65;;;;;;;;;;4953529;29;20030;-64
2022/03/31 02:49:50;;;;;;;23.00;6.32;;;;;;;;;;4953418;29;20027;-64
2022/03/31 02:52:16;;;;;;;17.75;6.03;;;;;;;;;;4952934;29;20079;-64
2022/03/31 02:57:27;;;;;;;21.48;6.13;;;;;;;;;;4953029;29;20539;-65
2022/03/31 02:59:53;;;;;;;22.40;5.97;;;;;;;;;;4953143;29;20039;-64
2022/03/31 03:02:19;;;;;;;26.13;6.47;;;;;;;;;;4953082;29;20027;-64
2022/03/31 03:04:45;;;;;;;18.90;6.40;;;;;;;;;;4952851;29;20035;-65
2022/03/31 03:07:11;;;;;;;22.45;5.72;;;;;;;;;;4953102;29;20092;-64
2022/03/31 03:09:37;;;;;;;19.92;5.85;;;;;;;;;;4952666;29;20053;-64
2022/03/31 03:12:05;;;;;;;23.55;6.28;;;;;;;;;;4953150;29;20482;-65
2022/03/31 03:14:32;;;;;;;18.50;5.85;;;;;;;;;;4952555;29;20054;-65
2022/03/31 03:16:59;;;;;;;19.48;6.30;;;;;;;;;;4952942;29;20054;-65
2022/03/31 03:19:25;;;;;;;20.75;5.60;;;;;;;;;;4952801;29;20101;-64
2022/03/31 03:21:51;;;;;;;21.95;5.63;;;;;;;;;;4952844;29;20544;-64
2022/03/31 03:24:17;;;;;;;20.00;5.72;;;;;;;;;;4952912;29;20039;-65
2022/03/31 03:26:43;;;;;;;20.08;5.97;;;;;;;;;;4953357;29;20034;-65
2022/03/31 03:29:09;;;;;;;21.33;6.10;;;;;;;;;;4952949;29;20037;-65
2022/03/31 03:31:36;;;;;;;18.55;6.05;;;;;;;;;;4952935;29;20059;-65
2022/03/31 03:34:02;;;;;;;15.25;5.45;;;;;;;;;;4952514;29;20041;-63
2022/03/31 03:36:29;;;;;;;18.20;5.50;;;;;;;;;;4953041;29;20023;-64
2022/03/31 03:38:55;;;;;;;19.52;6.15;;;;;;;;;;4953279;29;20070;-64
2022/03/31 03:41:21;;;;;;;29.20;6.10;;;;;;;;;;4952780;29;20035;-64
2022/03/31 03:43:47;;;;;;;18.00;5.25;;;;;;;;;;4952162;29;20059;-65
2022/03/31 03:46:13;;;;;;;17.73;5.53;;;;;;;;;;4952957;29;20682;-64
2022/03/31 03:48:40;;;;;;;18.70;5.70;;;;;;;;;;4952527;29;20027;-64
2022/03/31 03:51:06;;;;;;;18.05;5.20;;;;;;;;;;4952902;29;20023;-64
2022/03/31 03:53:32;;;;;;;19.38;5.90;;;;;;;;;;4952745;29;20026;-65
2022/03/31 03:55:58;;;;;;;20.17;6.22;;;;;;;;;;4952503;29;20058;-66
2022/03/31 03:58:24;;;;;;;24.80;6.30;;;;;;;;;;4952630;29;20131;-63
2022/03/31 04:00:50;;;;;;;26.25;7.55;;;;;;;;;;4952638;29;20047;-63
2022/03/31 04:03:17;;;;;;;20.88;6.85;;;;;;;;;;4952602;29;20023;-62
2022/03/31 04:05:43;;;;;;;21.58;6.38;;;;;;;;;;4952677;29;20023;-64
2022/03/31 04:08:10;;;;;;;23.35;5.88;;;;;;;;;;4952125;29;20031;-63
2022/03/31 04:10:36;;;;;;;19.58;6.78;;;;;;;;;;4952128;29;20055;-64
2022/03/31 04:13:02;;;;;;;18.83;5.88;;;;;;;;;;4952550;29;20036;-64
2022/03/31 04:15:28;;;;;;;22.20;5.63;;;;;;;;;;4952419;29;20472;-64
2022/03/31 04:17:54;;;;;;;19.20;5.60;;;;;;;;;;4952372;29;20087;-64
2022/03/31 04:20:21;;;;;;;16.98;5.85;;;;;;;;;;4952316;29;20527;-64
2022/03/31 04:22:47;;;;;;;20.88;6.43;;;;;;;;;;4952274;29;20397;-64
2022/03/31 04:25:13;;;;;;;22.80;5.82;;;;;;;;;;4952504;29;20037;-64
2022/03/31 04:27:40;;;;;;;15.77;5.60;;;;;;;;;;4952421;29;20023;-64
2022/03/31 04:30:11;;;;;;;22.73;5.50;;;;;;;;;;4952313;29;20031;-64
2022/03/31 04:32:38;;;;;;;19.02;5.72;;;;;;;;;;4952317;29;20034;-64
2022/03/31 04:35:04;;;;;;;19.40;5.10;;;;;;;;;;4952393;29;20035;-64
2022/03/31 04:37:30;;;;;;;25.40;6.07;;;;;;;;;;4952274;29;20075;-64
2022/03/31 04:39:56;;;;;;;21.05;5.20;;;;;;;;;;4952410;29;20480;-64
2022/03/31 04:42:23;;;;;;;17.63;5.32;;;;;;;;;;4952026;29;20548;-64
2022/03/31 04:44:49;;;;;;;17.85;5.47;;;;;;;;;;4952246;29;20031;-64
2022/03/31 04:47:15;;;;;;;24.13;5.45;;;;;;;;;;4952102;29;20035;-65
2022/03/31 04:49:41;;;;;;;18.77;5.40;;;;;;;;;;4951376;29;20031;-64
2022/03/31 04:52:07;;;;;;;17.80;5.80;;;;;;;;;;4951919;29;20042;-64
2022/03/31 04:54:33;;;;;;;21.00;5.82;;;;;;;;;;4953103;28;20024;-64
2022/03/31 04:57:00;;;;;;;20.08;5.38;;;;;;;;;;4955890;29;20035;-64
2022/03/31 04:59:26;;;;;;;18.75;5.07;;;;;;;;;;4955292;29;20035;-64
2022/03/31 05:01:52;;;;;;;19.45;5.07;;;;;;;;;;4955584;29;20019;-64
2022/03/31 05:04:18;;;;;;;19.15;5.30;;;;;;;;;;4938444;29;20027;-64
2022/03/31 05:06:44;;;;;;;19.98;5.50;;;;;;;;;;4955493;29;20132;-64
2022/03/31 05:09:10;;;;;;;16.30;5.60;;;;;;;;;;4952834;29;20038;-64
2022/03/31 05:11:36;;;;;;;15.45;5.05;;;;;;;;;;4919342;29;20051;-64
2022/03/31 05:14:02;;;;;;;15.30;6.22;;;;;;;;;;4936267;29;20479;-64
2022/03/31 05:16:29;;;;;;;22.15;5.72;;;;;;;;;;4936235;29;20031;-64
2022/03/31 05:18:55;;;;;;;22.25;5.80;;;;;;;;;;4935957;29;20407;-64
2022/03/31 05:21:21;;;;;;;20.27;5.75;;;;;;;;;;4936231;29;20028;-65
2022/03/31 05:23:48;;;;;;;15.40;5.50;;;;;;;;;;4935897;29;20098;-65
2022/03/31 05:26:14;;;;;;;18.35;5.80;;;;;;;;;;4935784;29;20024;-65
2022/03/31 05:28:41;;;;;;;22.90;5.72;;;;;;;;;;4935846;29;20060;-64
2022/03/31 05:31:07;;;;;;;20.70;5.53;;;;;;;;;;4935627;29;20032;-64
2022/03/31 05:33:34;;;;;;;22.60;6.70;;;;;;;;;;4935554;29;20071;-64
2022/03/31 05:36:01;;;;;;;17.15;5.45;;;;;;;;;;4935514;29;20054;-64
2022/03/31 05:38:27;;;;;;;20.17;6.07;;;;;;;;;;4935494;29;20495;-64
2022/03/31 05:40:54;;;;;;;18.33;5.45;;;;;;;;;;4935597;29;20044;-64
2022/03/31 05:43:21;;;;;;;17.90;5.20;;;;;;;;;;4935452;29;20071;-63
2022/03/31 05:45:47;;;;;;;20.55;5.40;;;;;;;;;;4935579;29;20078;-65
2022/03/31 05:48:14;;;;;;;21.42;5.43;;;;;;;;;;4935469;29;20042;-64
2022/03/31 05:50:40;;;;;;;16.73;5.53;;;;;;;;;;4935153;29;20058;-64
2022/03/31 05:53:06;;;;;;;14.23;5.50;;;;;;;;;;4935267;29;20150;-64
2022/03/31 05:55:32;;;;;;;18.15;5.22;;;;;;;;;;4935281;29;20032;-64
2022/03/31 05:57:59;;;;;;;16.88;4.95;;;;;;;;;;4935036;29;20513;-64
2022/03/31 06:00:25;;;;;;;21.90;6.13;;;;;;;;;;4934611;29;20083;-65
2022/03/31 06:02:53;;;;;;;18.98;5.50;;;;;;;;;;4934208;29;20036;-64
2022/03/31 06:05:19;;;;;;;19.58;5.72;;;;;;;;;;4933715;29;20396;-65
2022/03/31 06:07:45;;;;;;;22.75;6.10;;;;;;;;;;4934355;29;20099;-65
2022/03/31 06:10:12;;;;;;;21.88;6.13;;;;;;;;;;4934639;29;20071;-63
2022/03/31 06:12:38;;;;;;;21.48;6.88;;;;;;;;;;4935475;29;20039;-65
2022/03/31 06:15:05;;;;;;;25.02;7.55;;;;;;;;;;4935189;29;20063;-65
2022/03/31 06:17:31;;;;;;;26.75;8.35;;;;;;;;;;4934896;29;20059;-65
2022/03/31 06:19:57;;;;;;;21.80;8.27;;;;;;;;;;4935009;29;20046;-65
2022/03/31 06:22:23;;;;;;;26.88;7.82;;;;;;;;;;4935062;29;20701;-64
2022/03/31 06:24:49;;;;;;;27.05;8.05;;;;;;;;;;4934504;29;20035;-64
2022/03/31 06:27:16;;;;;;;21.48;8.50;;;;;;;;;;4934572;29;20036;-65
2022/03/31 06:29:45;;;;;;;25.27;7.20;;;;;;;;;;4935161;29;20047;-65
2022/03/31 06:32:11;;;;;;;28.15;7.82;;;;;;;;;;4934786;29;20035;-64
2022/03/31 06:34:38;;;;;;;22.98;7.22;;;;;;;;;;4934917;29;20063;-65
2022/03/31 06:37:04;;;;;;;19.92;6.57;;;;;;;;;;4934736;29;20034;-65
2022/03/31 06:39:30;;;;;;;25.05;6.95;;;;;;;;;;4935130;29;20083;-66
2022/03/31 06:41:57;;;;;;;28.70;6.15;;;;;;;;;;4934627;29;20444;-65
2022/03/31 06:44:23;;;;;;;28.70;7.03;;;;;;;;;;4934550;29;20559;-65
2022/03/31 06:46:49;;;;;;;25.42;5.97;;;;;;;;;;4935060;29;20028;-65
2022/03/31 06:49:16;;;;;;;24.52;6.15;;;;;;;;;;4943592;28;20099;-67
2022/03/31 06:51:44;;;;;;;21.35;5.85;;;;;;;;;;4934151;29;20477;-66
2022/03/31 06:54:10;;;;;;;25.42;6.05;;;;;;;;;;4935255;29;20027;-66
2022/03/31 06:56:36;;;;;;;29.30;5.97;;;;;;;;;;4953656;29;20110;-65
2022/03/31 06:59:03;;;;;;;25.10;6.03;;;;;;;;;;4953267;29;20039;-64
2022/03/31 07:01:29;;;;;;;23.83;6.05;;;;;;;;;;4953581;29;20091;-65
2022/03/31 07:03:56;;;;;;;24.70;6.13;;;;;;;;;;4953428;29;20035;-65
2022/03/31 07:06:23;;;;;;;23.63;6.13;;;;;;;;;;4953588;29;20479;-64
2022/03/31 07:08:49;;;;;;;31.55;6.60;;;;;;;;;;4953926;29;20035;-67
2022/03/31 07:11:16;;;;;;;28.27;6.85;;;;;;;;;;4952879;29;20110;-65
2022/03/31 07:13:46;;;;;;;32.78;6.45;;;;;;;;;;4952975;29;20035;-63
2022/03/31 07:16:12;;;;;;;30.45;6.97;;;;;;;;;;4952856;29;20508;-65
2022/03/31 07:18:38;;;;;;;39.33;7.20;;;;;;;;;;4951881;28;20928;-65
2022/03/31 07:21:04;;;;;;;27.35;7.18;;;;;;;;;;4952942;29;20483;-66
2022/03/31 07:23:31;;;;;;;30.90;6.65;;;;;;;;;;4952419;29;20689;-66
2022/03/31 07:25:57;;;;;;;25.75;6.10;;;;;;;;;;4953158;29;20019;-66
2022/03/31 07:28:23;;;;;;;25.30;5.78;;;;;;;;;;4952974;29;20059;-66
2022/03/31 07:30:50;;;;;;;29.13;5.72;;;;;;;;;;4952965;29;20023;-66
2022/03/31 07:33:18;;;;;;;28.80;6.70;;;;;;;;;;4953043;29;20391;-66
2022/03/31 07:35:47;;;;;;;23.75;5.95;;;;;;;;;;4952776;29;20083;-66
2022/03/31 07:38:14;;;;;;;27.58;6.25;;;;;;;;;;4952235;29;20525;-69
2022/03/31 07:40:40;;;;;;;34.50;6.30;;;;;;;;;;4952510;29;20535;-65
2022/03/31 07:43:07;;;;;;;30.05;6.32;;;;;;;;;;4951914;29;20033;-64
2022/03/31 07:45:36;;;;;;;34.47;7.10;;;;;;;;;;4952846;29;20449;-63
2022/03/31 07:48:04;;;;;;;24.90;6.05;;;;;;;;;;4952810;29;20492;-64
2022/03/31 07:50:30;;;;;;;31.40;7.00;;;;;;;;;;4952373;29;20031;-64
2022/03/31 07:52:57;;;;;;;29.10;6.40;;;;;;;;;;4952519;29;20035;-65
2022/03/31 07:55:24;;;;;;;27.98;6.93;;;;;;;;;;4952536;29;20336;-64
2022/03/31 07:57:50;;;;;;;33.70;6.75;;;;;;;;;;4952524;29;20050;-65
2022/03/31 08:00:17;;;;;;;29.65;6.18;;;;;;;;;;4952575;29;20031;-64
2022/03/31 08:02:44;;;;;;;39.50;7.22;;;;;;;;;;4952410;29;20106;-66
2022/03/31 08:05:11;;;;;;;28.10;6.28;;;;;;;;;;4951832;29;20039;-65
2022/03/31 08:07:38;;;;;;;37.47;6.97;;;;;;;;;;4952149;29;20435;-65
2022/03/31 08:10:05;;;;;;;38.08;6.57;;;;;;;;;;4951888;29;20111;-65
2022/03/31 08:12:31;;;;;;;40.50;7.85;;;;;;;;;;4952012;29;20082;-64
2022/03/31 08:14:57;;;;;;;27.58;7.70;;;;;;;;;;4952216;29;20424;-66
2022/03/31 08:17:23;;;;;;;35.67;8.80;;;;;;;;;;4952363;29;20028;-63
2022/03/31 08:19:49;;;;;;;42.30;8.75;;;;;;;;;;4952082;29;20039;-64
2022/03/31 08:22:17;;;;;;;34.65;7.53;;;;;;;;;;4951998;29;20384;-65
2022/03/31 08:24:43;;;;;;;33.50;7.50;;;;;;;;;;4952433;29;20035;-63
2022/03/31 08:27:09;;;;;;;33.70;6.53;;;;;;;;;;4952379;29;20023;-65
2022/03/31 08:29:35;;;;;;;33.05;6.78;;;;;;;;;;4953181;28;20030;-67
2022/03/31 08:32:02;;;;;;;32.83;6.63;;;;;;;;;;4955731;29;20476;-66
2022/03/31 08:34:28;;;;;;;32.80;7.07;;;;;;;;;;4955813;29;20464;-64
2022/03/31 08:36:54;;;;;;;32.00;7.22;;;;;;;;;;4955727;29;20115;-67
2022/03/31 08:39:20;;;;;;;48.40;7.72;;;;;;;;;;4955241;29;20043;-67
2022/03/31 08:41:46;;;;;;;30.92;7.47;;;;;;;;;;4955767;29;20038;-66
2022/03/31 08:44:15;;;;;;;33.25;7.05;;;;;;;;;;4955636;29;20034;-68
2022/03/31 08:46:41;;;;;;;28.17;6.55;;;;;;;;;;4955524;29;20034;-66
2022/03/31 08:49:09;;;;;;;34.50;7.00;;;;;;;;;;4955345;29;20035;-67
2022/03/31 08:51:35;;;;;;;29.58;7.32;;;;;;;;;;4955432;29;20042;-67
2022/03/31 08:54:01;;;;;;;33.28;6.97;;;;;;;;;;4954301;29;20066;-65
2022/03/31 08:56:27;;;;;;;32.65;6.55;;;;;;;;;;4953714;29;20106;-66
2022/03/31 08:58:53;;;;;;;35.83;7.72;;;;;;;;;;4954580;29;20047;-64
2022/03/31 09:01:19;;;;;;;27.27;6.72;;;;;;;;;;4954966;29;20107;-66
2022/03/31 09:03:45;;;;;;;29.77;6.78;;;;;;;;;;4955265;29;20035;-64
2022/03/31 09:06:22;;;;;;;29.60;6.25;;;;;;;;;;4954647;29;20844;-66
2022/03/31 09:09:16;;;;;;;34.17;6.55;;;;;;;;;;4954048;29;20035;-63
2022/03/31 09:11:46;;;;;;;42.55;6.93;;;;;;;;;;4952925;29;20058;-62
2022/03/31 09:14:13;;;;;;;27.75;6.13;;;;;;;;;;4954724;29;20042;-64
2022/03/31 09:16:39;;;;;;;28.00;6.40;;;;;;;;;;4954817;29;20023;-64
2022/03/31 09:19:11;;;;;;;28.02;7.07;;;;;;;;;;4969761;29;20036;-64
2022/03/31 09:21:53;;;;;;;30.17;6.75;;;;;;;;;;4955179;29;20027;-65
2022/03/31 09:24:20;;;;;;;32.72;8.18;;;;;;;;;;4962251;29;20047;-66
2022/03/31 09:26:49;;;;;;;44.03;13.05;;;;;;;;;;4948114;29;20095;-66
2022/03/31 09:29:20;;;;;;;29.63;6.68;;;;;;;;;;4961666;29;20034;-67
2022/03/31 09:31:55;;;;;;;67.90;19.50;;;;;;;;;;4964527;29;20031;-67
2022/03/31 09:34:22;;;;;;;40.05;9.98;;;;;;;;;;4936798;29;20758;-66
2022/03/31 09:36:52;;;;;;;33.20;9.15;;;;;;;;;;4956419;29;20034;-65
2022/03/31 09:39:18;;;;;;;31.05;7.57;;;;;;;;;;4954207;29;20043;-65
2022/03/31 09:41:52;;;;;;;26.60;6.78;;;;;;;;;;4953081;28;20698;-65
2022/03/31 09:44:21;;;;;;;23.27;6.10;;;;;;;;;;4954228;29;20035;-65
2022/03/31 09:46:47;;;;;;;21.10;6.50;;;;;;;;;;4954338;29;20054;-65
2022/03/31 09:49:13;;;;;;;22.23;5.88;;;;;;;;;;4954168;29;20030;-65
2022/03/31 09:51:39;;;;;;;20.30;5.70;;;;;;;;;;4954369;29;20027;-65
2022/03/31 09:54:06;;;;;;;25.98;6.47;;;;;;;;;;4954126;29;20038;-64
2022/03/31 09:56:38;;;;;;;17.85;4.85;;;;;;;;;;4952901;29;20059;-63
2022/03/31 09:59:06;;;;;;;20.38;4.90;;;;;;;;;;4953110;29;20121;-65
2022/03/31 10:01:33;;;;;;;22.73;5.38;;;;;;;;;;4953921;29;20605;-65
2022/03/31 10:04:00;;;;;;;17.90;4.40;;;;;;;;;;4936498;29;20039;-66
2022/03/31 10:06:26;;;;;;;23.38;5.05;;;;;;;;;;4953963;29;20038;-64
2022/03/31 10:08:53;;;;;;;20.08;5.22;;;;;;;;;;4953467;29;20038;-65
2022/03/31 10:11:20;;;;;;;22.75;7.85;;;;;;;;;;4953703;29;20503;-67
2022/03/31 10:13:55;;;;;;;49.42;14.48;;;;;;;;;;4953616;29;20159;-66
2022/03/31 10:16:30;;;;;;;39.35;13.45;;;;;;;;;;4953967;29;20074;-66
2022/03/31 10:18:56;;;;;;;43.15;13.68;;;;;;;;;;4953418;29;20047;-66
2022/03/31 10:21:29;;;;;;;38.72;11.70;;;;;;;;;;4953455;29;20416;-65
2022/03/31 10:26:40;;;;;;;106.30;36.53;;;;;;;;;;4953527;29;20407;-65
2022/03/31 10:29:14;;;;;;;232.73;82.57;;;;;;;;;;4953654;29;20158;-65
2022/03/31 10:31:44;;;;;;;89.05;36.10;;;;;;;;;;4952440;29;20030;-63
2022/03/31 10:34:10;;;;;;;32.00;11.60;;;;;;;;;;4948235;29;20114;-63
2022/03/31 10:36:37;;;;;;;31.02;9.85;;;;;;;;;;4953531;29;20089;-65
2022/03/31 10:39:06;;;;;;;27.05;9.73;;;;;;;;;;4952921;29;20078;-65
2022/03/31 10:41:37;;;;;;;32.17;13.85;;;;;;;;;;4953739;29;20023;-64
2022/03/31 10:44:04;;;;;;;36.80;13.52;;;;;;;;;;4953257;29;20038;-62
2022/03/31 10:46:32;;;;;;;26.63;7.43;;;;;;;;;;4953370;29;20383;-63
2022/03/31 10:48:58;;;;;;;25.92;7.22;;;;;;;;;;4953290;29;20550;-63
2022/03/31 10:51:32;;;;;;;29.80;8.90;;;;;;;;;;4952795;29;20154;-64
2022/03/31 10:53:59;;;;;;;22.88;7.40;;;;;;;;;;4953158;28;20023;-63
2022/03/31 10:56:27;;;;;;;22.33;6.60;;;;;;;;;;4953503;29;20030;-64
2022/03/31 10:58:54;;;;;;;22.83;7.45;;;;;;;;;;4952686;29;20066;-63
2022/03/31 11:01:21;;;;;;;23.90;6.80;;;;;;;;;;4953342;29;20027;-64
2022/03/31 11:03:48;;;;;;;26.05;8.52;;;;;;;;;;4953140;29;20492;-62
2022/03/31 11:06:14;;;;;;;22.00;6.63;;;;;;;;;;4952989;29;20458;-62
2022/03/31 11:08:41;;;;;;;20.65;6.38;;;;;;;;;;4953045;29;20038;-62
2022/03/31 11:11:08;;;;;;;21.65;7.43;;;;;;;;;;4952576;29;20439;-62
2022/03/31 11:13:37;;;;;;;27.65;9.02;;;;;;;;;;4953182;29;20035;-63
2022/03/31 11:16:05;;;;;;;26.40;6.78;;;;;;;;;;4952890;29;20114;-62
2022/03/31 11:18:31;;;;;;;21.80;7.72;;;;;;;;;;4952474;29;20106;-69
2022/03/31 11:21:01;;;;;;;20.77;7.38;;;;;;;;;;4952682;29;20037;-65
2022/03/31 11:23:27;;;;;;;23.90;6.95;;;;;;;;;;4952684;29;20027;-65
2022/03/31 11:25:54;;;;;;;22.30;7.40;;;;;;;;;;4952855;29;20031;-63
2022/03/31 11:28:20;;;;;;;24.92;7.50;;;;;;;;;;4952571;29;20030;-64
2022/03/31 11:30:48;;;;;;;21.95;8.50;;;;;;;;;;4952618;29;20050;-64
2022/03/31 11:33:14;;;;;;;21.63;8.38;;;;;;;;;;4952160;29;20371;-64
2022/03/31 11:35:41;;;;;;;23.88;8.35;;;;;;;;;;4950970;29;20024;-66
2022/03/31 11:38:17;;;;;;;22.90;7.72;;;;;;;;;;4952228;29;20118;-64
2022/03/31 11:40:44;;;;;;;24.33;7.72;;;;;;;;;;4952654;29;20031;-65
2022/03/31 11:43:11;;;;;;;26.90;7.57;;;;;;;;;;4952401;29;20086;-65
2022/03/31 11:45:43;;;;;;;27.30;8.40;;;;;;;;;;4952681;29;20543;-63
2022/03/31 11:48:09;;;;;;;23.48;7.88;;;;;;;;;;4952480;29;20041;-64
2022/03/31 11:50:36;;;;;;;23.88;7.55;;;;;;;;;;4952649;29;20030;-64
2022/03/31 11:53:03;;;;;;;20.40;8.40;;;;;;;;;;4951748;29;20429;-63
2022/03/31 11:55:30;;;;;;;27.17;8.25;;;;;;;;;;4951281;29;20479;-63
2022/03/31 11:57:56;;;;;;;26.95;8.32;;;;;;;;;;4940787;29;20031;-64
2022/03/31 12:00:23;;;;;;;28.55;9.30;;;;;;;;;;4941431;29;20042;-63
2022/03/31 12:02:59;;;;;;;31.67;8.30;;;;;;;;;;4942106;29;20031;-63
2022/03/31 12:05:25;;;;;;;29.00;9.65;;;;;;;;;;4942618;28;20031;-63
2022/03/31 12:07:52;;;;;;;33.92;9.05;;;;;;;;;;4936865;29;20028;-63
2022/03/31 12:10:21;;;;;;;30.90;9.63;;;;;;;;;;4936563;29;20086;-62
2022/03/31 12:12:52;;;;;;;31.15;8.93;;;;;;;;;;4936769;29;20028;-62
2022/03/31 12:15:20;;;;;;;26.27;8.52;;;;;;;;;;4936798;29;20069;-62
2022/03/31 12:17:56;;;;;;;28.30;8.30;;;;;;;;;;4947967;29;20035;-62
2022/03/31 12:20:23;;;;;;;29.20;8.52;;;;;;;;;;4945477;29;20059;-62
2022/03/31 12:22:49;;;;;;;27.20;8.30;;;;;;;;;;4941442;29;20540;-61
2022/03/31 12:25:26;;;;;;;23.80;8.20;;;;;;;;;;4945119;29;20407;-63
2022/03/31 12:27:52;;;;;;;28.38;8.18;;;;;;;;;;4954001;29;20111;-64
2022/03/31 12:30:18;;;;;;;28.90;8.70;;;;;;;;;;4955223;29;20042;-62
2022/03/31 12:32:48;;;;;;;28.25;8.63;;;;;;;;;;4955581;29;20024;-63
2022/03/31 12:35:14;;;;;;;36.38;9.40;;;;;;;;;;4955551;29;20035;-62
2022/03/31 12:37:42;;;;;;;27.65;9.95;;;;;;;;;;4954979;29;20031;-62
2022/03/31 12:40:11;;;;;;;30.15;10.60;;;;;;;;;;4954205;29;20126;-62
2022/03/31 12:42:38;;;;;;;35.45;10.90;;;;;;;;;;4953860;29;20031;-62
2022/03/31 12:45:12;;;;;;;29.20;10.88;;;;;;;;;;4953732;29;20031;-68
2022/03/31 12:47:41;;;;;;;33.75;10.75;;;;;;;;;;4944038;29;20024;-61
2022/03/31 12:50:17;;;;;;;32.95;11.63;;;;;;;;;;4943884;29;20087;-62
2022/03/31 12:52:59;;;;;;;29.65;12.25;;;;;;;;;;4947240;29;20050;-61
2022/03/31 12:55:31;;;;;;;31.52;11.00;;;;;;;;;;4945346;29;20399;-60
2022/03/31 12:58:02;;;;;;;38.75;12.35;;;;;;;;;;4952841;29;20034;-62
2022/03/31 13:00:29;;;;;;;36.20;13.05;;;;;;;;;;4955349;29;20042;-61
2022/03/31 13:02:56;;;;;;;31.35;13.15;;;;;;;;;;4955222;29;20082;-63
2022/03/31 13:05:23;;;;;;;32.10;13.57;;;;;;;;;;4955059;29;20024;-60
2022/03/31 13:07:52;;;;;;;44.53;15.20;;;;;;;;;;4954492;29;20035;-61
2022/03/31 13:10:18;;;;;;;42.90;14.38;;;;;;;;;;4954674;29;20496;-61
2022/03/31 13:12:44;;;;;;;38.03;14.25;;;;;;;;;;4955006;29;20031;-61
2022/03/31 13:15:13;;;;;;;33.15;14.15;;;;;;;;;;4955396;28;20435;-61
2022/03/31 13:17:40;;;;;;;32.70;13.70;;;;;;;;;;4955300;29;20376;-62
2022/03/31 13:20:07;;;;;;;34.75;11.75;;;;;;;;;;4954742;29;20035;-61
2022/03/31 13:22:33;;;;;;;31.55;12.57;;;;;;;;;;4954270;29;20080;-62
2022/03/31 13:25:00;;;;;;;32.75;12.60;;;;;;;;;;4954309;29;20444;-63
2022/03/31 13:27:27;;;;;;;32.83;12.95;;;;;;;;;;4954876;29;20047;-62
2022/03/31 13:29:54;;;;;;;33.28;12.60;;;;;;;;;;4954421;29;20038;-65
2022/03/31 13:32:21;;;;;;;23.73;11.43;;;;;;;;;;4954161;29;20031;-63
2022/03/31 13:34:47;;;;;;;26.23;11.20;;;;;;;;;;4954953;29;20511;-62
2022/03/31 13:37:15;;;;;;;31.02;12.02;;;;;;;;;;4954335;29;20035;-62
2022/03/31 13:39:42;;;;;;;34.30;11.98;;;;;;;;;;4954308;29;20047;-65
2022/03/31 13:42:08;;;;;;;32.03;12.70;;;;;;;;;;4954896;29;20111;-62
2022/03/31 13:44:35;;;;;;;33.83;12.77;;;;;;;;;;4954214;29;20035;-61
2022/03/31 13:47:01;;;;;;;29.52;13.88;;;;;;;;;;4954731;29;20023;-65
2022/03/31 13:49:27;;;;;;;38.80;13.68;;;;;;;;;;4953174;29;20420;-62
2022/03/31 13:51:54;;;;;;;34.50;14.35;;;;;;;;;;4953149;29;20458;-62
2022/03/31 13:54:21;;;;;;;30.90;12.23;;;;;;;;;;4952782;29;20471;-62
2022/03/31 13:56:48;;;;;;;39.15;14.30;;;;;;;;;;4953321;29;20027;-61
2022/03/31 14:02:00;;;;;;;37.17;15.27;;;;;;;;;;4942912;29;20506;-61
2022/03/31 14:04:27;;;;;;;35.00;14.32;;;;;;;;;;4941308;29;20037;-64
2022/03/31 14:06:53;;;;;;;31.25;14.57;;;;;;;;;;4934716;29;20031;-63
2022/03/31 14:09:22;;;;;;;32.08;13.75;;;;;;;;;;4934760;29;20063;-62
2022/03/31 14:11:48;;;;;;;35.33;14.70;;;;;;;;;;4936085;29;20028;-62
2022/03/31 14:14:15;;;;;;;38.88;15.45;;;;;;;;;;4936844;29;20560;-60
2022/03/31 14:16:44;;;;;;;36.35;14.93;;;;;;;;;;4934724;29;20030;-63
2022/03/31 14:19:14;;;;;;;30.30;14.45;;;;;;;;;;4934602;29;20396;-62
2022/03/31 14:21:41;;;;;;;35.08;14.63;;;;;;;;;;4934205;29;20465;-62
2022/03/31 14:24:11;;;;;;;39.78;14.48;;;;;;;;;;4934663;29;20679;-63
2022/03/31 14:26:38;;;;;;;30.73;15.43;;;;;;;;;;4936821;29;20388;-63
2022/03/31 14:29:04;;;;;;;37.03;15.63;;;;;;;;;;4942815;29;20106;-63
2022/03/31 14:31:30;;;;;;;31.45;13.15;;;;;;;;;;4934202;29;20098;-63
2022/03/31 14:33:57;;;;;;;33.05;13.60;;;;;;;;;;4935216;29;20031;-63
2022/03/31 14:36:23;;;;;;;45.97;16.33;;;;;;;;;;4936295;29;20115;-61